Time;durP1;ratioP1;P1;durP2;ratioP2;P2;SDS_P1;SDS_P2;PMS_P1;PMS_P2;Temp;Humidity;BMP_temperature;BMP_pressure;BME280_temperature;BME280_humidity;BME280_pressure;Samples;Min_cycle;Max_cycle;Signal;HPM_P1;HPM_P2
2022/04/18 00:00:12;;;;;;;5.10;2.70;;;5.50;42.30;;;4.11;51.33;98440.09;5050531;28;20511;-82
2022/04/18 00:02:40;;;;;;;3.50;3.20;;;5.50;42.70;;;4.02;52.06;98431.22;5043766;28;20459;-81
2022/04/18 00:05:09;;;;;;;4.73;2.83;;;5.40;42.80;;;4.01;51.61;98434.03;5045455;28;20559;-79
2022/04/18 00:07:36;;;;;;;3.40;2.87;;;5.40;43.00;;;4.03;52.21;98440.09;5055075;28;20452;-79
2022/04/18 00:10:04;;;;;;;3.47;2.50;;;5.40;43.10;;;4.02;52.00;98441.06;5059958;28;20545;-81
2022/04/18 00:12:31;;;;;;;3.70;2.93;;;5.40;43.20;;;4.03;52.64;98440.91;5049219;28;20483;-80
2022/04/18 00:14:59;;;;;;;2.90;2.37;;;5.40;43.30;;;4.08;51.86;98440.44;5054275;28;20574;-81
2022/04/18 00:17:26;;;;;;;3.33;2.60;;;5.40;43.30;;;4.08;52.51;98432.41;5035895;28;20548;-79
2022/04/18 00:19:55;;;;;;;3.80;2.70;;;5.50;43.40;;;4.01;52.08;98442.06;5046357;28;20506;-80
2022/04/18 00:22:23;;;;;;;3.50;2.67;;;5.40;43.40;;;3.83;52.68;98435.84;5053128;28;20507;-79
2022/04/18 00:24:51;;;;;;;2.97;2.40;;;5.30;43.60;;;3.45;53.14;98381.09;5045534;28;20533;-81
2022/04/18 00:27:18;;;;;;;6.53;3.30;;;5.20;43.80;;;3.51;53.47;98391.97;5056059;28;20462;-81
2022/04/18 00:29:47;;;;;;;3.90;2.57;;;5.10;44.00;;;3.71;54.09;98425.59;5061434;28;20532;-82
2022/04/18 00:32:15;;;;;;;5.33;2.60;;;5.10;44.20;;;3.67;53.95;98430.44;5050906;28;20491;-80
2022/04/18 00:34:42;;;;;;;3.90;3.40;;;5.00;44.30;;;3.56;54.50;98423.53;5041493;28;20451;-80
2022/04/18 00:37:11;;;;;;;5.97;2.80;;;5.00;44.40;;;3.11;54.63;98356.91;5057146;28;20465;-84
2022/04/18 00:39:38;;;;;;;4.70;2.90;;;4.90;44.60;;;3.28;54.94;98428.25;5051965;28;21093;-80
2022/04/18 00:42:06;;;;;;;3.90;3.00;;;4.70;44.80;;;3.26;55.49;98429.22;5037562;28;20462;-81
2022/04/18 00:44:33;;;;;;;5.03;3.77;;;4.70;45.00;;;3.30;55.93;98428.91;5045053;28;20512;-81
2022/04/18 00:47:00;;;;;;;4.20;3.00;;;4.60;45.30;;;3.18;56.12;98425.69;5043510;28;20902;-80
2022/04/18 00:49:27;;;;;;;5.73;3.57;;;4.50;45.40;;;3.05;56.46;98424.25;5046782;28;20480;-79
2022/04/18 00:51:54;;;;;;;4.67;3.30;;;4.50;45.80;;;3.01;56.94;98422.91;5052496;28;20471;-81
2022/04/18 00:54:22;;;;;;;3.23;2.93;;;4.40;46.10;;;2.84;57.08;98403.28;5038821;28;20477;-80
2022/04/18 00:56:53;;;;;;;5.57;3.00;;;4.40;46.30;;;2.93;57.45;98422.84;5051668;28;20513;-78
2022/04/18 00:59:21;;;;;;;4.00;3.50;;;4.30;46.50;;;2.77;57.94;98413.72;5045646;28;20953;-79
2022/04/18 01:01:48;;;;;;;5.07;3.30;;;4.20;46.80;;;2.82;57.78;98415.94;5053550;28;20456;-78
2022/04/18 01:04:15;;;;;;;4.77;2.80;;;4.20;46.90;;;2.74;58.38;98411.38;5060175;28;20529;-80
2022/04/18 01:06:42;;;;;;;3.40;3.03;;;4.10;46.90;;;2.73;58.43;98412.38;5051854;28;20438;-77
2022/04/18 01:09:09;;;;;;;3.90;3.10;;;4.10;47.10;;;2.77;58.07;98400.38;5048111;28;20491;-78
2022/04/18 01:11:38;;;;;;;3.70;3.00;;;4.10;47.20;;;2.73;58.50;98403.50;5054772;28;20453;-78
2022/04/18 01:14:06;;;;;;;4.60;3.17;;;4.10;47.20;;;2.66;58.63;98393.47;5039792;28;20455;-78
2022/04/18 01:16:33;;;;;;;4.30;2.83;;;4.10;47.50;;;2.55;58.74;98375.03;5052143;28;20522;-81
2022/04/18 01:19:00;;;;;;;4.70;3.50;;;4.10;47.70;;;2.61;58.81;98408.28;5055197;28;20484;-81
2022/04/18 01:21:28;;;;;;;4.23;3.17;;;4.00;47.80;;;2.60;59.28;98394.09;5049462;28;20486;-81
2022/04/18 01:23:57;;;;;;;5.30;2.97;;;3.90;48.10;;;2.49;59.84;98392.50;5052520;28;20536;-82
2022/04/18 01:29:08;;;;;;;3.87;2.80;;;3.90;48.40;;;2.74;59.06;98384.69;5053525;28;21021;-82
2022/04/18 01:31:38;;;;;;;2.70;2.33;;;4.10;48.30;;;2.68;58.92;98382.66;5052151;28;21033;-80
2022/04/18 01:34:08;;;;;;;3.30;2.53;;;4.00;48.20;;;2.69;59.30;98390.50;5042493;28;20541;-81
2022/04/18 01:36:36;;;;;;;3.30;3.00;;;4.00;48.30;;;2.57;59.73;98388.25;5044658;28;20478;-80
2022/04/18 01:39:04;;;;;;;3.37;3.00;;;4.00;48.30;;;2.63;59.58;98385.78;5052401;28;20558;-79
2022/04/18 01:41:30;;;;;;;4.47;2.77;;;4.00;48.40;;;2.55;59.29;98367.03;5053340;28;20458;-80
2022/04/18 01:43:58;;;;;;;3.50;3.20;;;4.00;48.60;;;2.53;59.61;98369.03;5048722;28;20518;-81
2022/04/18 01:46:25;;;;;;;3.40;2.90;;;4.00;48.80;;;2.19;60.15;98335.91;5051749;28;20947;-80
2022/04/18 01:48:52;;;;;;;3.80;2.60;;;3.90;48.70;;;2.38;60.58;98374.91;5050029;28;21180;-81
2022/04/18 01:51:20;;;;;;;4.83;3.40;;;3.80;48.80;;;2.28;60.88;98381.34;5051066;28;20541;-79
2022/04/18 01:53:49;;;;;;;6.97;3.00;;;3.70;49.10;;;2.28;61.38;98381.34;5050120;28;20450;-81
2022/04/18 01:56:16;;;;;;;4.43;3.10;;;3.60;49.60;;;2.25;61.19;98374.47;5050557;28;20504;-80
2022/04/18 01:58:43;;;;;;;5.23;3.00;;;3.60;49.60;;;2.17;61.87;98369.91;5053230;28;20855;-81
2022/04/18 02:01:11;;;;;;;3.83;3.10;;;3.50;49.90;;;2.04;62.48;98372.09;5059445;28;20484;-81
2022/04/18 02:03:42;;;;;;;5.40;3.47;;;3.40;50.10;;;2.16;62.18;98368.22;5065157;28;20497;-82
2022/04/18 02:06:09;;;;;;;5.10;3.37;;;3.40;50.50;;;2.22;62.13;98366.78;5056016;28;20488;-80
2022/04/18 02:08:36;;;;;;;3.80;3.00;;;3.50;50.60;;;2.23;61.96;98366.63;5058766;28;20482;-81
2022/04/18 02:11:05;;;;;;;5.27;3.87;;;3.60;50.60;;;2.14;62.21;98364.88;5051057;28;20470;-80
2022/04/18 02:13:32;;;;;;;10.23;3.00;;;3.60;50.60;;;2.11;62.83;98359.84;5044939;28;20482;-79
2022/04/18 02:15:59;;;;;;;3.90;2.93;;;3.50;50.90;;;2.16;62.50;98346.91;5049188;28;20463;-81
2022/04/18 02:18:27;;;;;;;3.50;3.10;;;3.60;51.00;;;2.08;62.88;98346.84;5059121;28;20455;-79
2022/04/18 02:20:55;;;;;;;3.30;3.00;;;3.50;51.10;;;1.91;62.79;98316.53;5046568;28;20443;-80
2022/04/18 02:23:22;;;;;;;5.37;3.10;;;3.60;51.40;;;2.05;63.08;98331.16;5044325;28;20459;-78
2022/04/18 02:25:49;;;;;;;4.00;3.00;;;3.60;51.40;;;2.08;63.14;98339.66;5048730;28;20476;-77
2022/04/18 02:28:18;;;;;;;4.80;3.30;;;3.60;51.50;;;2.06;63.40;98335.50;5053124;28;20472;-81
2022/04/18 02:30:45;;;;;;;3.87;3.20;;;3.50;51.60;;;2.03;63.85;98351.78;5056033;28;20851;-78
2022/04/18 02:33:12;;;;;;;3.40;3.10;;;3.50;51.80;;;2.10;63.16;98331.53;5053530;28;20496;-79
2022/04/18 02:35:39;;;;;;;6.33;3.37;;;3.50;51.80;;;2.07;63.32;98331.84;5051739;28;20970;-80
2022/04/18 02:38:06;;;;;;;4.30;3.03;;;3.50;51.80;;;1.84;63.47;98297.66;5040911;28;20457;-79
2022/04/18 02:40:33;;;;;;;3.37;2.70;;;3.50;52.00;;;2.05;63.56;98333.81;5051038;28;20445;-79
2022/04/18 02:43:01;;;;;;;4.83;3.13;;;3.50;52.10;;;1.89;64.29;98327.31;5046756;28;21329;-79
2022/04/18 02:45:31;;;;;;;3.53;3.20;;;3.40;52.40;;;2.01;63.40;98327.09;5051447;28;20470;-79
2022/04/18 02:47:58;;;;;;;2.80;2.50;;;3.40;52.60;;;1.86;63.98;98303.66;5055269;28;20966;-80
2022/04/18 02:50:25;;;;;;;3.40;2.90;;;3.40;52.60;;;1.92;64.22;98335.03;5053266;28;21219;-81
2022/04/18 02:52:52;;;;;;;4.30;2.93;;;3.40;52.80;;;1.88;64.31;98333.66;5043420;28;20479;-79
2022/04/18 02:55:19;;;;;;;3.80;2.80;;;3.30;52.80;;;1.88;64.52;98330.16;5044055;28;20462;-79
2022/04/18 02:57:46;;;;;;;4.73;3.40;;;3.30;53.10;;;1.73;64.42;98298.72;5055712;28;20537;-78
2022/04/18 03:00:14;;;;;;;3.40;2.80;;;3.30;53.30;;;1.76;64.72;98313.56;5053350;28;20547;-80
2022/04/18 03:02:43;;;;;;;3.67;3.20;;;3.30;53.40;;;1.76;65.52;98319.72;5047244;28;20440;-80
2022/04/18 03:05:12;;;;;;;4.30;3.20;;;3.20;53.70;;;1.77;64.89;98329.38;5044930;28;20571;-80
2022/04/18 03:07:39;;;;;;;5.03;2.90;;;3.20;53.70;;;1.69;65.44;98314.16;5041438;28;20990;-79
2022/04/18 03:10:08;;;;;;;3.67;3.30;;;3.20;54.00;;;1.67;65.82;98308.16;5056054;28;20460;-78
2022/04/18 03:12:36;;;;;;;3.80;3.13;;;3.20;54.30;;;1.65;65.75;98314.59;5047551;28;20893;-78
2022/04/18 03:15:03;;;;;;;2.87;2.50;;;3.10;54.30;;;1.58;65.72;98303.72;5056969;28;20468;-77
2022/04/18 03:17:30;;;;;;;3.90;2.90;;;3.10;54.70;;;1.57;65.98;98299.38;5036331;28;20498;-78
2022/04/18 03:19:59;;;;;;;3.60;2.80;;;3.10;54.90;;;1.48;66.24;98294.97;5051074;28;20546;-78
2022/04/18 03:22:26;;;;;;;4.13;3.13;;;3.00;55.20;;;1.57;66.21;98307.38;5041924;28;20451;-80
2022/04/18 03:24:54;;;;;;;4.23;2.70;;;3.00;55.30;;;1.63;66.43;98292.63;5046599;28;21058;-80
2022/04/18 03:27:21;;;;;;;4.70;3.17;;;3.10;55.60;;;1.64;66.39;98287.16;5055965;28;20477;-79
2022/04/18 03:29:49;;;;;;;3.20;2.90;;;3.00;55.80;;;1.66;66.61;98295.81;5055779;28;20445;-79
2022/04/18 03:32:16;;;;;;;5.33;2.67;;;3.10;55.90;;;1.51;67.04;98284.00;5037538;28;20445;-78
2022/04/18 03:34:43;;;;;;;4.50;3.20;;;2.90;56.20;;;1.51;67.19;98287.50;5042726;28;20462;-79
2022/04/18 03:39:56;;;;;;;4.10;3.40;;;2.80;56.90;;;1.12;68.69;98279.78;5048186;28;20487;-79
2022/04/18 03:42:32;;;;;;;4.20;2.93;;;2.60;57.80;;;1.40;68.07;98288.56;5044643;28;20487;-81
2022/04/18 03:45:01;;;;;;;4.10;3.00;;;2.70;58.30;;;1.51;67.40;98279.50;5047298;28;20501;-80
2022/04/18 03:47:29;;;;;;;3.40;3.10;;;2.90;58.00;;;1.50;67.19;98282.34;5056979;28;20543;-80
2022/04/18 03:49:56;;;;;;;3.40;2.87;;;2.90;57.90;;;1.49;67.67;98281.50;5050678;28;20470;-79
2022/04/18 03:52:25;;;;;;;2.87;2.60;;;2.90;58.00;;;1.48;67.54;98274.50;5048103;28;20567;-79
2022/04/18 03:54:52;;;;;;;4.47;3.13;;;3.00;58.10;;;1.55;67.52;98274.72;5045057;28;20457;-80
2022/04/18 03:57:19;;;;;;;4.00;3.00;;;3.00;58.10;;;1.53;67.84;98268.72;5050991;28;21114;-79
2022/04/18 03:59:47;;;;;;;5.63;2.90;;;3.00;58.20;;;1.61;67.41;98279.47;5056894;28;20449;-80
2022/04/18 04:02:14;;;;;;;5.27;3.20;;;3.00;58.20;;;1.54;67.42;98262.41;5042487;28;20545;-80
2022/04/18 04:04:42;;;;;;;3.40;2.60;;;3.00;58.40;;;1.53;67.49;98268.72;5049580;28;20739;-79
2022/04/18 04:07:09;;;;;;;3.73;3.07;;;3.00;58.40;;;1.56;67.47;98281.72;5044270;28;20491;-80
2022/04/18 04:09:38;;;;;;;3.93;3.13;;;3.00;58.60;;;1.39;68.10;98268.25;5049874;28;20546;-81
2022/04/18 04:12:06;;;;;;;3.70;2.90;;;3.00;58.80;;;1.46;68.31;98291.63;5063485;28;20941;-80
2022/04/18 04:14:33;;;;;;;3.70;3.00;;;2.90;59.00;;;1.33;68.47;98263.53;5061252;28;20484;-79
2022/04/18 04:17:01;;;;;;;3.40;2.60;;;2.80;59.10;;;1.31;68.81;98273.50;5044064;28;20562;-80
2022/04/18 04:19:28;;;;;;;5.83;3.73;;;2.80;59.70;;;1.37;68.75;98275.56;5068062;28;20475;-79
2022/04/18 04:21:55;;;;;;;3.63;3.10;;;2.70;60.00;;;1.47;68.03;98277.31;5040678;28;20476;-81
2022/04/18 04:24:22;;;;;;;3.70;3.10;;;2.90;60.00;;;1.45;68.18;98252.69;5041990;28;20451;-80
2022/04/18 04:26:51;;;;;;;4.20;3.20;;;2.90;59.70;;;1.53;68.00;98266.06;5052831;28;20490;-80
2022/04/18 04:29:18;;;;;;;4.07;3.50;;;2.90;59.60;;;1.25;68.14;98216.38;5054712;28;20452;-80
2022/04/18 04:31:45;;;;;;;3.80;3.10;;;3.00;59.80;;;1.44;68.51;98264.28;5052604;28;20469;-81
2022/04/18 04:34:12;;;;;;;6.80;3.10;;;2.90;59.90;;;1.50;68.35;98271.69;5050929;28;20944;-81
2022/04/18 04:36:41;;;;;;;4.30;3.50;;;2.90;59.90;;;1.63;67.71;98253.50;5047070;28;20455;-81
2022/04/18 04:39:09;;;;;;;3.90;3.10;;;3.10;60.00;;;1.93;67.21;98272.75;5046782;28;20451;-81
2022/04/18 04:41:36;;;;;;;3.30;3.00;;;3.40;59.60;;;2.18;65.87;98264.94;5051962;28;20479;-82
2022/04/18 04:44:06;;;;;;;5.70;3.57;;;3.70;58.60;;;2.29;65.34;98255.00;5055714;28;20481;-83
2022/04/18 04:46:34;;;;;;;3.33;3.03;;;3.90;58.10;;;2.51;64.82;98265.16;5053474;28;20479;-81
2022/04/18 04:49:02;;;;;;;5.13;3.40;;;4.10;57.50;;;2.65;64.34;98270.88;5046129;28;20535;-81
2022/04/18 04:51:30;;;;;;;4.73;3.40;;;4.30;57.10;;;2.72;63.48;98261.28;5048252;28;20449;-81
2022/04/18 04:53:57;;;;;;;4.73;3.50;;;4.50;56.50;;;3.26;62.38;98265.47;5048209;28;20536;-81
2022/04/18 04:56:25;;;;;;;3.37;3.07;;;4.90;55.90;;;3.42;61.44;98234.50;5052480;28;20532;-82
2022/04/18 04:58:53;;;;;;;4.47;3.27;;;5.30;55.10;;;3.56;60.69;98262.38;5064834;28;20447;-81
2022/04/18 05:01:22;;;;;;;3.20;2.90;;;5.50;54.40;;;3.60;60.76;98259.22;5047746;28;20465;-82
2022/04/18 05:03:49;;;;;;;4.73;3.00;;;5.60;54.00;;;3.81;60.08;98249.88;5053180;28;20493;-82
2022/04/18 05:06:16;;;;;;;3.50;3.13;;;5.70;53.70;;;4.29;59.33;98259.88;5048910;28;20558;-83
2022/04/18 05:08:43;;;;;;;5.20;2.97;;;6.10;53.40;;;5.30;56.51;98259.41;5041903;28;20498;-81
2022/04/18 05:11:10;;;;;;;2.97;2.67;;;6.80;52.70;;;5.66;55.49;98265.06;5048095;28;20507;-79
2022/04/18 05:13:38;;;;;;;6.20;3.50;;;7.40;51.60;;;6.61;52.29;98258.59;5048555;28;20460;-82
2022/04/18 05:16:05;;;;;;;4.43;3.27;;;8.10;50.30;;;7.00;50.70;98251.28;5036030;28;20445;-82
2022/04/18 05:18:33;;;;;;;3.80;3.37;;;8.60;49.00;;;7.45;49.91;98261.94;5050286;28;20453;-79
2022/04/18 05:21:00;;;;;;;3.73;3.33;;;9.30;47.80;;;7.40;49.40;98264.38;5062149;28;20488;-81
2022/04/18 05:23:27;;;;;;;5.87;3.83;;;9.60;47.10;;;8.01;48.45;98257.78;5056909;28;20461;-78
2022/04/18 05:25:54;;;;;;;5.07;3.77;;;10.10;45.60;;;8.35;47.24;98266.97;5047594;28;20473;-80
2022/04/18 05:28:21;;;;;;;5.90;4.70;;;10.70;44.60;;;8.09;47.56;98265.69;5045709;28;20584;-81
2022/04/18 05:30:48;;;;;;;4.90;3.77;;;10.10;44.40;;;8.26;47.61;98273.50;5053818;28;20440;-84
2022/04/18 05:33:15;;;;;;;3.30;3.00;;;10.30;44.50;;;7.88;48.36;98267.38;5044188;28;20484;-82
2022/04/18 05:35:44;;;;;;;3.77;3.13;;;10.50;44.30;;;8.17;47.20;98268.28;5045518;28;20476;-80
2022/04/18 05:38:11;;;;;;;3.77;3.30;;;10.40;44.00;;;7.64;48.40;98250.56;5052140;28;20476;-81
2022/04/18 05:40:38;;;;;;;5.30;3.50;;;10.20;43.90;;;7.67;47.84;98243.19;5046162;28;20495;-80
2022/04/18 05:43:05;;;;;;;4.47;3.40;;;10.40;43.80;;;7.02;49.87;98274.25;5047946;28;20491;-81
2022/04/18 05:45:33;;;;;;;3.73;3.33;;;9.60;44.90;;;6.35;51.99;98273.28;5047378;28;20472;-81
2022/04/18 05:48:00;;;;;;;3.43;3.13;;;8.70;45.80;;;5.34;54.70;98266.91;5044682;28;20469;-81
2022/04/18 05:50:27;;;;;;;4.00;3.60;;;7.50;47.00;;;5.08;55.61;98278.78;5050104;28;20546;-81
2022/04/18 05:52:55;;;;;;;4.17;3.50;;;6.90;48.30;;;4.76;57.08;98269.00;5046271;28;21058;-81
2022/04/18 05:55:22;;;;;;;3.73;3.10;;;6.40;49.30;;;4.52;58.08;98279.59;5045018;28;21216;-81
2022/04/18 05:57:52;;;;;;;2.90;2.70;;;6.10;50.10;;;4.37;59.21;98290.13;5044641;28;20553;-81
2022/04/18 06:00:25;;;;;;;3.90;3.00;;;5.90;51.10;;;4.30;59.36;98286.47;5045171;28;20460;-84
2022/04/18 06:02:53;;;;;;;3.60;3.17;;;5.80;51.30;;;4.40;59.56;98283.63;5046097;28;20546;-85
2022/04/18 06:05:20;;;;;;;3.53;3.23;;;5.70;51.80;;;4.58;58.67;98285.25;5046629;28;20621;-83
2022/04/18 06:07:48;;;;;;;4.13;3.70;;;5.90;52.00;;;4.62;58.42;98278.56;5041300;28;20834;-78
2022/04/18 06:10:17;;;;;;;3.50;3.20;;;6.00;52.30;;;4.79;57.77;98274.84;5045414;28;20494;-80
2022/04/18 06:12:44;;;;;;;3.57;3.27;;;6.10;51.70;;;4.85;57.67;98280.53;5051765;28;20452;-86
2022/04/18 06:15:11;;;;;;;5.30;3.07;;;6.20;51.50;;;4.72;57.42;98268.50;5047606;28;20453;-88
2022/04/18 06:17:38;;;;;;;3.97;3.20;;;6.20;51.30;;;4.87;57.60;98289.22;5052288;28;20514;-83
2022/04/18 06:20:07;;;;;;;4.03;3.00;;;6.20;51.60;;;4.93;58.17;98267.13;5044632;28;20518;-83
2022/04/18 06:22:34;;;;;;;3.37;2.90;;;6.40;51.80;;;5.31;56.77;98277.16;5046354;28;20576;-87
2022/04/18 06:25:01;;;;;;;3.50;3.10;;;6.60;51.50;;;5.26;56.93;98275.00;5050629;28;20475;-80
2022/04/18 06:27:30;;;;;;;3.40;2.80;;;6.60;51.10;;;5.18;56.71;98285.75;5068060;28;20572;-80
2022/04/18 06:29:57;;;;;;;3.30;2.93;;;6.60;51.10;;;4.90;56.74;98236.16;5048027;28;20489;-78
2022/04/18 06:32:25;;;;;;;4.47;2.93;;;6.60;51.20;;;5.36;57.11;98280.16;5058846;28;20470;-80
2022/04/18 06:34:52;;;;;;;3.27;2.90;;;6.70;51.20;;;5.47;56.14;98277.09;5054052;28;20442;-82
2022/04/18 06:37:19;;;;;;;3.70;2.90;;;6.80;51.00;;;5.50;55.53;98275.88;5061934;28;20499;-80
2022/04/18 06:39:46;;;;;;;3.90;2.90;;;6.90;50.80;;;5.64;55.77;98271.63;5062758;28;20449;-83
2022/04/18 06:42:13;;;;;;;4.33;3.10;;;6.90;50.90;;;5.71;56.52;98271.75;5067661;28;20464;-78
2022/04/18 06:44:41;;;;;;;4.30;3.20;;;7.00;51.00;;;5.77;55.62;98266.50;5068555;28;20495;-77
2022/04/18 06:47:09;;;;;;;3.33;3.00;;;7.10;50.90;;;5.98;55.22;98280.25;5065730;28;20515;-81
2022/04/18 06:49:37;;;;;;;3.30;3.00;;;7.20;50.60;;;6.12;54.57;98274.13;5064704;28;20459;-79
2022/04/18 06:52:05;;;;;;;3.37;2.70;;;7.40;50.90;;;6.28;54.19;98272.31;5057827;28;20445;-80
2022/04/18 06:54:32;;;;;;;3.50;2.93;;;7.50;50.40;;;6.61;54.02;98277.41;5054516;28;20559;-79
2022/04/18 06:56:58;;;;;;;4.70;2.93;;;7.80;50.70;;;6.70;53.93;98275.47;5069171;28;20849;-78
2022/04/18 06:59:25;;;;;;;3.17;2.87;;;7.90;50.70;;;7.08;53.65;98273.50;5053010;28;20652;-80
2022/04/18 07:01:54;;;;;;;3.53;3.23;;;8.10;51.10;;;7.17;52.97;98266.19;5045467;28;20460;-80
2022/04/18 07:04:22;;;;;;;6.10;3.00;;;8.40;50.40;;;7.28;52.34;98269.38;5048774;28;20457;-82
2022/04/18 07:06:49;;;;;;;3.80;2.80;;;8.50;49.80;;;7.18;52.46;98273.22;5045775;28;20889;-78
2022/04/18 07:09:16;;;;;;;3.87;2.87;;;8.40;49.60;;;7.00;51.90;98270.91;5047760;28;20445;-82
2022/04/18 07:11:45;;;;;;;3.43;3.13;;;8.40;49.00;;;7.23;51.95;98272.66;5051655;28;20998;-82
2022/04/18 07:14:12;;;;;;;3.20;2.90;;;8.50;49.30;;;7.34;51.40;98272.16;5043068;28;20794;-82
2022/04/18 07:16:39;;;;;;;3.10;2.50;;;8.50;49.10;;;7.47;51.18;98260.75;5043231;28;20843;-82
2022/04/18 07:19:07;;;;;;;2.80;2.60;;;8.70;48.90;;;7.69;50.28;98260.75;5044550;28;20466;-82
2022/04/18 07:21:35;;;;;;;3.57;3.20;;;8.80;48.60;;;7.84;49.93;98265.25;5046844;28;20476;-82
2022/04/18 07:24:02;;;;;;;3.63;2.40;;;9.00;48.40;;;7.95;49.65;98254.00;5044528;28;20446;-82
2022/04/18 07:26:29;;;;;;;3.53;2.80;;;9.10;48.20;;;8.19;49.46;98258.13;5048011;28;20804;-80
2022/04/18 07:28:56;;;;;;;3.60;2.70;;;9.30;48.00;;;8.34;48.57;98249.16;5043475;28;20955;-82
2022/04/18 07:31:23;;;;;;;5.53;2.93;;;9.50;47.50;;;8.34;48.22;98257.22;5043435;28;20458;-77
2022/04/18 07:33:50;;;;;;;5.50;2.80;;;9.60;47.30;;;8.33;48.32;98242.91;5039910;28;20543;-82
2022/04/18 07:36:19;;;;;;;2.97;2.67;;;9.50;47.10;;;8.50;47.65;98248.06;5042492;28;20543;-82
2022/04/18 07:38:49;;;;;;;3.63;3.00;;;9.60;47.10;;;8.66;47.59;98244.22;5060474;28;20445;-81
2022/04/18 07:41:17;;;;;;;3.47;3.07;;;9.80;46.90;;;8.97;46.68;98245.63;5042723;28;20449;-83
2022/04/18 07:43:44;;;;;;;2.47;2.27;;;10.00;45.70;;;8.96;46.58;98248.53;5047750;28;20558;-78
2022/04/18 07:46:11;;;;;;;3.00;2.30;;;10.10;45.30;;;9.05;45.82;98248.19;5041454;28;20469;-81
2022/04/18 07:48:38;;;;;;;3.87;2.80;;;10.20;45.00;;;9.14;46.13;98248.00;5053232;28;20478;-77
2022/04/18 07:53:51;;;;;;;7.30;2.57;;;10.30;44.90;;;9.31;45.43;98249.31;5045038;28;20452;-78
2022/04/18 07:56:20;;;;;;;3.67;2.70;;;10.50;45.00;;;9.39;45.31;98250.19;5041263;28;20485;-77
2022/04/18 07:58:47;;;;;;;2.80;2.50;;;10.50;44.50;;;9.49;44.67;98246.06;5045050;28;20452;-80
2022/04/18 08:01:14;;;;;;;2.13;1.93;;;10.60;44.10;;;9.43;43.67;98244.19;5041936;28;20666;-79
2022/04/18 08:03:41;;;;;;;2.50;2.10;;;10.60;43.90;;;9.64;44.26;98248.59;5057281;28;20494;-76
2022/04/18 08:06:08;;;;;;;2.63;2.20;;;10.70;44.10;;;9.66;43.16;98234.06;5048951;28;20987;-77
2022/04/18 08:08:35;;;;;;;2.30;2.10;;;10.80;43.10;;;9.65;43.58;98238.63;5047354;28;20460;-78
2022/04/18 08:11:04;;;;;;;1.97;1.77;;;10.80;43.00;;;9.78;42.37;98243.22;5052311;28;20465;-78
2022/04/18 08:13:32;;;;;;;2.33;2.13;;;10.90;42.60;;;9.68;42.14;98237.41;5049702;28;20497;-83
2022/04/18 08:15:59;;;;;;;3.07;2.20;;;10.90;42.10;;;9.97;41.77;98241.59;5046274;28;20465;-79
2022/04/18 08:18:26;;;;;;;3.20;1.77;;;11.00;42.10;;;10.04;40.75;98230.78;5065694;28;20821;-82
2022/04/18 08:20:53;;;;;;;3.67;2.17;;;11.20;41.60;;;10.21;40.11;98237.44;5056719;28;20453;-79
2022/04/18 08:23:20;;;;;;;1.90;1.73;;;11.30;41.50;;;10.12;40.12;98224.34;5054782;28;20453;-81
2022/04/18 08:25:48;;;;;;;2.30;1.60;;;11.40;41.00;;;10.04;40.98;98239.72;5059008;28;20552;-80
2022/04/18 08:28:16;;;;;;;2.07;1.87;;;11.20;41.20;;;10.09;40.32;98232.88;5050017;28;20489;-82
2022/04/18 08:30:43;;;;;;;4.30;1.90;;;11.20;40.70;;;10.23;39.69;98231.00;5046393;28;20503;-81
2022/04/18 08:33:10;;;;;;;2.97;1.47;;;11.30;40.70;;;10.33;39.48;98226.88;5041577;28;20504;-80
2022/04/18 08:35:37;;;;;;;2.30;1.70;;;11.50;40.50;;;10.32;39.79;98227.06;5061775;28;20469;-79
2022/04/18 08:38:04;;;;;;;2.40;2.10;;;11.50;40.60;;;10.63;39.29;98239.09;5042240;28;21013;-79
2022/04/18 08:40:33;;;;;;;1.70;1.50;;;11.60;40.90;;;10.71;38.68;98225.38;5040237;28;20451;-78
2022/04/18 08:43:00;;;;;;;2.23;2.03;;;11.80;40.30;;;10.95;37.28;98231.13;5047457;28;20515;-80
2022/04/18 08:45:29;;;;;;;2.50;1.50;;;12.00;39.80;;;11.07;37.22;98227.78;5045706;28;20492;-79
2022/04/18 08:53:29;;;;;;;1.93;1.50;;;11.90;39.20;;;10.57;37.84;98157.03;5040633;28;21126;-83
2022/04/18 08:55:58;;;;;;;2.00;1.53;;;12.00;39.40;;;11.11;37.70;98219.03;5050937;28;20465;-78
2022/04/18 08:58:27;;;;;;;2.70;1.50;;;12.10;39.30;;;11.22;36.36;98214.81;5054640;28;20458;-84
2022/04/18 09:00:58;;;;;;;1.67;1.57;;;12.30;38.90;;;11.23;36.45;98207.53;5042086;28;20525;-81
2022/04/18 09:03:25;;;;;;;2.30;2.10;;;12.30;38.80;;;11.42;36.38;98203.91;5040277;28;20467;-81
2022/04/18 09:06:08;;;;;;;1.70;1.60;;;12.50;38.90;;;11.39;37.95;98198.94;5046245;28;20845;-81
2022/04/18 09:08:36;;;;;;;2.53;2.20;;;12.50;39.40;;;11.56;36.47;98191.13;5048176;28;20499;-83
2022/04/18 09:11:03;;;;;;;2.67;1.80;;;12.60;38.90;;;11.56;36.28;98195.72;5056863;28;20453;-82
2022/04/18 09:13:32;;;;;;;1.67;1.57;;;12.70;38.80;;;11.33;36.43;98154.63;5049770;28;20824;-87
2022/04/18 09:16:04;;;;;;;3.07;1.93;;;12.70;38.70;;;11.62;36.44;98192.97;5050975;28;21384;-82
2022/04/18 09:18:31;;;;;;;2.73;2.43;;;12.70;38.80;;;11.69;35.68;98186.66;5050934;28;20469;-83
2022/04/18 09:20:59;;;;;;;2.10;1.60;;;12.80;38.50;;;11.64;34.08;98184.63;5064164;28;20470;-83
2022/04/18 09:23:29;;;;;;;2.23;2.03;;;12.70;37.50;;;11.63;35.47;98188.38;5054189;28;20534;-83
2022/04/18 09:26:02;;;;;;;2.90;2.20;;;12.80;38.10;;;11.69;35.94;98186.66;5070166;28;21213;-81
2022/04/18 09:28:32;;;;;;;2.20;1.77;;;12.70;38.50;;;11.53;35.58;98160.97;5058750;28;20477;-79
2022/04/18 09:31:05;;;;;;;5.97;2.10;;;12.70;38.10;;;11.60;36.26;98173.41;5055730;28;20496;-84
2022/04/18 09:33:41;;;;;;;3.33;2.00;;;12.70;38.30;;;11.87;36.09;98178.63;5064436;28;20503;-84
2022/04/18 09:36:14;;;;;;;2.10;1.90;;;12.90;38.70;;;11.67;35.26;98188.78;5054939;28;20458;-82
2022/04/18 09:38:45;;;;;;;3.60;2.70;;;12.90;38.00;;;11.57;36.34;98163.00;5057448;28;20478;-82
2022/04/18 09:41:20;;;;;;;3.07;2.00;;;12.80;38.20;;;11.74;36.49;98167.88;5067962;28;20450;-83
2022/04/18 09:43:49;;;;;;;1.67;1.57;;;12.80;38.80;;;11.86;36.71;98168.03;5072083;28;20460;-79
2022/04/18 09:46:18;;;;;;;2.30;2.10;;;12.90;39.00;;;11.82;36.29;98164.94;5068693;28;20520;-81
2022/04/18 09:48:47;;;;;;;2.37;1.70;;;12.90;38.80;;;11.98;36.57;98165.44;5043470;28;20513;-82
2022/04/18 09:51:16;;;;;;;1.73;1.63;;;13.00;38.90;;;11.90;36.15;98167.38;5074369;28;20455;-78
2022/04/18 09:53:46;;;;;;;2.40;1.80;;;13.00;38.60;;;11.84;36.46;98168.25;5069591;28;20446;-82
2022/04/18 09:56:18;;;;;;;2.50;1.80;;;13.00;38.70;;;12.15;36.08;98174.69;5067107;28;20487;-79
2022/04/18 09:58:45;;;;;;;2.33;2.13;;;13.20;38.80;;;12.02;35.48;98150.41;5075442;28;20464;-82
2022/04/18 10:01:14;;;;;;;1.70;1.60;;;13.20;38.20;;;12.21;35.30;98153.16;5076918;28;20453;-81
2022/04/18 10:03:44;;;;;;;2.90;1.90;;;13.20;38.30;;;12.24;35.69;98158.16;5074886;28;20442;-83
2022/04/18 10:06:12;;;;;;;5.07;2.57;;;13.30;38.30;;;12.00;36.11;98155.19;5043823;28;20940;-81
2022/04/18 10:08:39;;;;;;;3.00;2.00;;;13.20;38.50;;;12.25;35.42;98154.41;5047884;28;20560;-82
2022/04/18 10:11:08;;;;;;;3.20;1.70;;;13.30;38.40;;;12.14;35.39;98150.53;5049708;28;20462;-82
2022/04/18 10:13:36;;;;;;;1.50;1.40;;;13.20;38.10;;;11.97;34.61;98112.31;5048985;28;20797;-82
2022/04/18 10:16:05;;;;;;;2.77;1.70;;;13.30;37.70;;;12.27;35.31;98150.41;5048279;28;20459;-78
2022/04/18 10:18:36;;;;;;;1.57;1.43;;;13.30;37.70;;;12.38;34.14;98139.88;5049088;28;20566;-80
2022/04/18 10:21:18;;;;;;;2.10;1.90;;;13.40;37.50;;;12.51;34.33;98134.31;5058625;28;20512;-81
2022/04/18 10:24:24;;;;;;;1.80;1.60;;;13.50;37.70;;;12.51;34.51;98133.47;5053757;28;20451;-81
2022/04/18 10:27:48;;;;;;;2.07;1.87;;;13.60;37.60;;;12.47;34.24;98125.00;5050957;28;20908;-81
2022/04/18 10:30:16;;;;;;;2.13;1.87;;;13.50;37.50;;;12.59;34.26;98135.91;5061531;28;20508;-82
2022/04/18 10:32:43;;;;;;;3.23;2.00;;;13.50;37.50;;;12.51;33.95;98099.09;5054746;28;20480;-80
2022/04/18 10:35:14;;;;;;;2.87;1.80;;;13.60;37.40;;;12.63;33.76;98118.13;5054937;28;20442;-78
2022/04/18 10:37:44;;;;;;;1.70;1.60;;;13.70;37.00;;;12.71;34.18;98123.25;5059113;28;20457;-79
2022/04/18 10:40:14;;;;;;;1.90;1.80;;;13.70;37.50;;;12.33;33.41;98110.75;5054000;28;20566;-78
2022/04/18 10:42:41;;;;;;;1.53;1.40;;;13.60;36.60;;;11.98;34.00;98065.25;5051917;28;20494;-78
2022/04/18 10:45:11;;;;;;;5.23;1.53;;;13.40;36.60;;;12.43;33.01;98116.47;5056967;28;20440;-79
2022/04/18 10:48:08;;;;;;;2.77;1.83;;;13.50;36.30;;;12.49;33.28;98122.03;5052485;28;20477;-78